Terminal Aerodrome Forecast
Issued by NWS

Home | Current Version | Previous Version | Text Only | Print | Product List | Glossary On
Versions: 1 2 3 4 5 6 7 8 9 10 11 12
498
FTUS45 KTFX 242320
TAFLWT
TAF
KLWT 242320Z 2500/2524 18015KT P6SM SCT070 BKN150
     FM250200 22015KT P6SM BKN070
     FM251100 28017G22KT P6SM BKN070=

USA.gov is the U.S. government's official web portal to all federal, state and local government web resources and services.